Itapecerica da Serra, Brazil
Current Conditions -  °F | °C
As of 9:00 PM on Thursday 18 Dec 2014 (Local Time) from SBSP Reporting Station
Clear Clear  
Wind Chill: 70°   Ceiling: Unl
Heat Index: 70°   Visibility: 6mi
Dew Point: 59°   Wind: 12mph
Humidity: 68%   Direction: 150°SSE
Pressure: 29.91"   Gusts: NA
Location:  23.72°S, 46.83°W
Report Text: SBSP 182300Z 15010KT CAVOK 21/15 Q1013
Loading
Personal Weather Stations






























Interactive Weather Map New forecast layout! Learn more

10-Day Weather Forecast

Advertisements
Track Severe Weather on mobile